sensor_id;sensor_type;location;lat;lon;timestamp;P1;durP1;ratioP1;P2;durP2;ratioP2
5612;SDS011;63463;53.586;9.928;2023-04-23T00:00:59;7.70;;;6.10;;
5612;SDS011;63463;53.586;9.928;2023-04-23T00:03:27;6.97;;;6.37;;
5612;SDS011;63463;53.586;9.928;2023-04-23T00:05:57;10.17;;;7.40;;
5612;SDS011;63463;53.586;9.928;2023-04-23T00:08:23;12.20;;;7.57;;
5612;SDS011;63463;53.586;9.928;2023-04-23T00:10:49;8.40;;;7.30;;
5612;SDS011;63463;53.586;9.928;2023-04-23T00:13:16;7.90;;;6.90;;
5612;SDS011;63463;53.586;9.928;2023-04-23T00:15:42;8.30;;;7.20;;
5612;SDS011;63463;53.586;9.928;2023-04-23T00:18:08;12.10;;;7.50;;
5612;SDS011;63463;53.586;9.928;2023-04-23T00:20:36;10.60;;;8.03;;
5612;SDS011;63463;53.586;9.928;2023-04-23T00:23:02;11.90;;;8.20;;
5612;SDS011;63463;53.586;9.928;2023-04-23T00:25:29;11.27;;;8.20;;
5612;SDS011;63463;53.586;9.928;2023-04-23T00:27:55;8.07;;;7.27;;
5612;SDS011;63463;53.586;9.928;2023-04-23T00:30:21;12.60;;;8.73;;
5612;SDS011;63463;53.586;9.928;2023-04-23T00:32:48;15.33;;;8.83;;
5612;SDS011;63463;53.586;9.928;2023-04-23T00:35:14;14.40;;;8.53;;
5612;SDS011;63463;53.586;9.928;2023-04-23T00:37:40;12.33;;;8.57;;
5612;SDS011;63463;53.586;9.928;2023-04-23T00:40:06;11.13;;;8.77;;
5612;SDS011;63463;53.586;9.928;2023-04-23T00:42:33;16.00;;;9.50;;
5612;SDS011;63463;53.586;9.928;2023-04-23T00:45:00;12.03;;;8.50;;
5612;SDS011;63463;53.586;9.928;2023-04-23T00:47:27;11.47;;;8.53;;
5612;SDS011;63463;53.586;9.928;2023-04-23T00:49:55;15.80;;;9.07;;
5612;SDS011;63463;53.586;9.928;2023-04-23T00:52:21;10.80;;;8.67;;
5612;SDS011;63463;53.586;9.928;2023-04-23T00:54:47;18.50;;;10.20;;
5612;SDS011;63463;53.586;9.928;2023-04-23T00:57:13;14.07;;;9.63;;
5612;SDS011;63463;53.586;9.928;2023-04-23T00:59:38;10.80;;;8.60;;
5612;SDS011;63463;53.586;9.928;2023-04-23T01:02:05;13.87;;;9.60;;
5612;SDS011;63463;53.586;9.928;2023-04-23T01:04:31;15.70;;;9.63;;
5612;SDS011;63463;53.586;9.928;2023-04-23T01:06:57;13.57;;;10.07;;
5612;SDS011;63463;53.586;9.928;2023-04-23T01:09:23;13.77;;;9.77;;
5612;SDS011;63463;53.586;9.928;2023-04-23T01:11:51;12.73;;;9.43;;
5612;SDS011;63463;53.586;9.928;2023-04-23T01:14:17;14.00;;;10.60;;
5612;SDS011;63463;53.586;9.928;2023-04-23T01:16:43;15.23;;;10.10;;
5612;SDS011;63463;53.586;9.928;2023-04-23T01:19:10;13.97;;;10.07;;
5612;SDS011;63463;53.586;9.928;2023-04-23T01:21:37;14.50;;;10.20;;
5612;SDS011;63463;53.586;9.928;2023-04-23T01:24:05;17.73;;;11.00;;
5612;SDS011;63463;53.586;9.928;2023-04-23T01:26:34;17.33;;;10.90;;
5612;SDS011;63463;53.586;9.928;2023-04-23T01:29:00;17.83;;;11.40;;
5612;SDS011;63463;53.586;9.928;2023-04-23T01:31:27;19.20;;;11.10;;
5612;SDS011;63463;53.586;9.928;2023-04-23T01:33:54;19.33;;;11.43;;
5612;SDS011;63463;53.586;9.928;2023-04-23T01:36:23;18.80;;;10.97;;
5612;SDS011;63463;53.586;9.928;2023-04-23T01:38:49;20.23;;;12.03;;
5612;SDS011;63463;53.586;9.928;2023-04-23T01:41:16;16.53;;;11.73;;
5612;SDS011;63463;53.586;9.928;2023-04-23T01:43:42;21.70;;;11.40;;
5612;SDS011;63463;53.586;9.928;2023-04-23T01:46:08;19.30;;;12.20;;
5612;SDS011;63463;53.586;9.928;2023-04-23T01:48:34;16.10;;;11.10;;
5612;SDS011;63463;53.586;9.928;2023-04-23T01:51:00;16.70;;;11.03;;
5612;SDS011;63463;53.586;9.928;2023-04-23T01:53:27;15.27;;;10.57;;
5612;SDS011;63463;53.586;9.928;2023-04-23T01:55:53;25.43;;;13.33;;
5612;SDS011;63463;53.586;9.928;2023-04-23T01:58:20;26.03;;;16.13;;
5612;SDS011;63463;53.586;9.928;2023-04-23T02:00:47;30.57;;;17.03;;
5612;SDS011;63463;53.586;9.928;2023-04-23T02:03:13;31.70;;;18.43;;
5612;SDS011;63463;53.586;9.928;2023-04-23T02:05:39;35.90;;;21.30;;
5612;SDS011;63463;53.586;9.928;2023-04-23T02:08:06;32.30;;;19.30;;
5612;SDS011;63463;53.586;9.928;2023-04-23T02:10:33;43.93;;;22.43;;
5612;SDS011;63463;53.586;9.928;2023-04-23T02:12:59;38.83;;;21.70;;
5612;SDS011;63463;53.586;9.928;2023-04-23T02:15:26;36.33;;;20.60;;
5612;SDS011;63463;53.586;9.928;2023-04-23T02:17:52;34.40;;;20.03;;
5612;SDS011;63463;53.586;9.928;2023-04-23T02:20:18;37.93;;;21.60;;
5612;SDS011;63463;53.586;9.928;2023-04-23T02:22:45;40.37;;;21.93;;
5612;SDS011;63463;53.586;9.928;2023-04-23T02:25:11;50.00;;;24.30;;
5612;SDS011;63463;53.586;9.928;2023-04-23T02:27:39;39.23;;;21.37;;
5612;SDS011;63463;53.586;9.928;2023-04-23T02:30:06;38.47;;;21.60;;
5612;SDS011;63463;53.586;9.928;2023-04-23T02:32:33;36.37;;;20.97;;
5612;SDS011;63463;53.586;9.928;2023-04-23T02:34:59;40.50;;;21.17;;
5612;SDS011;63463;53.586;9.928;2023-04-23T02:37:27;43.43;;;22.57;;
5612;SDS011;63463;53.586;9.928;2023-04-23T02:39:53;36.60;;;20.87;;
5612;SDS011;63463;53.586;9.928;2023-04-23T02:42:19;43.83;;;21.40;;
5612;SDS011;63463;53.586;9.928;2023-04-23T02:44:45;38.30;;;19.53;;
5612;SDS011;63463;53.586;9.928;2023-04-23T02:47:11;38.33;;;21.43;;
5612;SDS011;63463;53.586;9.928;2023-04-23T02:49:37;42.07;;;21.20;;
5612;SDS011;63463;53.586;9.928;2023-04-23T02:52:03;40.53;;;21.77;;
5612;SDS011;63463;53.586;9.928;2023-04-23T02:54:29;37.30;;;20.43;;
5612;SDS011;63463;53.586;9.928;2023-04-23T02:56:56;42.53;;;22.10;;
5612;SDS011;63463;53.586;9.928;2023-04-23T02:59:22;40.60;;;20.33;;
5612;SDS011;63463;53.586;9.928;2023-04-23T03:01:48;35.00;;;18.97;;
5612;SDS011;63463;53.586;9.928;2023-04-23T03:04:15;40.73;;;20.47;;
5612;SDS011;63463;53.586;9.928;2023-04-23T03:06:42;30.90;;;17.70;;
5612;SDS011;63463;53.586;9.928;2023-04-23T03:09:08;27.67;;;17.33;;
5612;SDS011;63463;53.586;9.928;2023-04-23T03:11:34;33.80;;;17.63;;
5612;SDS011;63463;53.586;9.928;2023-04-23T03:14:00;29.17;;;16.60;;
5612;SDS011;63463;53.586;9.928;2023-04-23T03:16:27;35.20;;;17.23;;
5612;SDS011;63463;53.586;9.928;2023-04-23T03:18:53;30.23;;;15.97;;
5612;SDS011;63463;53.586;9.928;2023-04-23T03:21:19;26.87;;;15.27;;
5612;SDS011;63463;53.586;9.928;2023-04-23T03:23:45;27.40;;;15.57;;
5612;SDS011;63463;53.586;9.928;2023-04-23T03:26:11;32.03;;;15.97;;
5612;SDS011;63463;53.586;9.928;2023-04-23T03:28:37;25.13;;;15.03;;
5612;SDS011;63463;53.586;9.928;2023-04-23T03:31:03;25.53;;;14.60;;
5612;SDS011;63463;53.586;9.928;2023-04-23T03:33:29;33.30;;;16.03;;
5612;SDS011;63463;53.586;9.928;2023-04-23T03:35:55;27.60;;;15.00;;
5612;SDS011;63463;53.586;9.928;2023-04-23T03:38:21;22.80;;;14.30;;
5612;SDS011;63463;53.586;9.928;2023-04-23T03:40:47;29.23;;;14.47;;
5612;SDS011;63463;53.586;9.928;2023-04-23T03:43:13;18.87;;;12.33;;
5612;SDS011;63463;53.586;9.928;2023-04-23T03:45:39;20.17;;;12.50;;
5612;SDS011;63463;53.586;9.928;2023-04-23T03:48:05;23.80;;;14.30;;
5612;SDS011;63463;53.586;9.928;2023-04-23T03:50:31;17.70;;;12.80;;
5612;SDS011;63463;53.586;9.928;2023-04-23T03:53:02;19.30;;;13.00;;
5612;SDS011;63463;53.586;9.928;2023-04-23T03:55:28;20.37;;;13.40;;
5612;SDS011;63463;53.586;9.928;2023-04-23T03:57:54;17.80;;;12.80;;
5612;SDS011;63463;53.586;9.928;2023-04-23T04:00:20;22.87;;;13.83;;
5612;SDS011;63463;53.586;9.928;2023-04-23T04:02:46;22.53;;;12.30;;
5612;SDS011;63463;53.586;9.928;2023-04-23T04:05:12;18.23;;;12.70;;
5612;SDS011;63463;53.586;9.928;2023-04-23T04:07:38;22.97;;;12.00;;
5612;SDS011;63463;53.586;9.928;2023-04-23T04:10:05;20.30;;;12.30;;
5612;SDS011;63463;53.586;9.928;2023-04-23T04:12:31;17.20;;;11.73;;
5612;SDS011;63463;53.586;9.928;2023-04-23T04:14:57;19.70;;;12.20;;
5612;SDS011;63463;53.586;9.928;2023-04-23T04:17:24;17.27;;;11.40;;
5612;SDS011;63463;53.586;9.928;2023-04-23T04:19:50;17.37;;;11.27;;
5612;SDS011;63463;53.586;9.928;2023-04-23T04:22:16;24.73;;;13.77;;
5612;SDS011;63463;53.586;9.928;2023-04-23T04:24:42;16.30;;;11.33;;
5612;SDS011;63463;53.586;9.928;2023-04-23T04:27:08;17.27;;;11.37;;
5612;SDS011;63463;53.586;9.928;2023-04-23T04:29:35;19.00;;;11.80;;
5612;SDS011;63463;53.586;9.928;2023-04-23T04:32:01;17.63;;;11.87;;
5612;SDS011;63463;53.586;9.928;2023-04-23T04:34:29;21.47;;;13.10;;
5612;SDS011;63463;53.586;9.928;2023-04-23T04:36:55;19.17;;;12.50;;
5612;SDS011;63463;53.586;9.928;2023-04-23T04:39:21;17.77;;;12.40;;
5612;SDS011;63463;53.586;9.928;2023-04-23T04:41:47;20.00;;;12.17;;
5612;SDS011;63463;53.586;9.928;2023-04-23T04:44:13;19.73;;;12.47;;
5612;SDS011;63463;53.586;9.928;2023-04-23T04:46:40;17.30;;;10.67;;
5612;SDS011;63463;53.586;9.928;2023-04-23T04:49:07;22.33;;;12.27;;
5612;SDS011;63463;53.586;9.928;2023-04-23T04:51:33;14.10;;;10.00;;
5612;SDS011;63463;53.586;9.928;2023-04-23T04:53:59;18.13;;;9.90;;
5612;SDS011;63463;53.586;9.928;2023-04-23T04:56:25;15.80;;;10.70;;
5612;SDS011;63463;53.586;9.928;2023-04-23T04:58:52;14.60;;;10.73;;
5612;SDS011;63463;53.586;9.928;2023-04-23T05:01:18;21.00;;;10.70;;
5612;SDS011;63463;53.586;9.928;2023-04-23T05:03:45;14.97;;;10.03;;
5612;SDS011;63463;53.586;9.928;2023-04-23T05:06:12;17.10;;;9.73;;
5612;SDS011;63463;53.586;9.928;2023-04-23T05:08:38;15.63;;;9.73;;
5612;SDS011;63463;53.586;9.928;2023-04-23T05:11:05;12.80;;;8.97;;
5612;SDS011;63463;53.586;9.928;2023-04-23T05:13:32;15.03;;;9.20;;
5612;SDS011;63463;53.586;9.928;2023-04-23T05:15:58;17.30;;;9.70;;
5612;SDS011;63463;53.586;9.928;2023-04-23T05:18:24;13.83;;;9.70;;
5612;SDS011;63463;53.586;9.928;2023-04-23T05:20:51;14.60;;;9.30;;
5612;SDS011;63463;53.586;9.928;2023-04-23T05:23:17;13.03;;;9.53;;
5612;SDS011;63463;53.586;9.928;2023-04-23T05:25:43;12.60;;;10.27;;
5612;SDS011;63463;53.586;9.928;2023-04-23T05:28:09;15.37;;;10.73;;
5612;SDS011;63463;53.586;9.928;2023-04-23T05:30:36;17.00;;;11.20;;
5612;SDS011;63463;53.586;9.928;2023-04-23T05:33:02;14.50;;;10.70;;
5612;SDS011;63463;53.586;9.928;2023-04-23T05:35:28;14.37;;;10.47;;
5612;SDS011;63463;53.586;9.928;2023-04-23T05:37:55;17.53;;;10.60;;
5612;SDS011;63463;53.586;9.928;2023-04-23T05:40:21;25.10;;;10.93;;
5612;SDS011;63463;53.586;9.928;2023-04-23T05:42:47;17.70;;;10.87;;
5612;SDS011;63463;53.586;9.928;2023-04-23T05:45:13;14.37;;;9.90;;
5612;SDS011;63463;53.586;9.928;2023-04-23T05:47:39;20.93;;;11.03;;
5612;SDS011;63463;53.586;9.928;2023-04-23T05:50:05;17.63;;;10.70;;
5612;SDS011;63463;53.586;9.928;2023-04-23T05:52:32;13.87;;;8.63;;
5612;SDS011;63463;53.586;9.928;2023-04-23T05:55:00;14.37;;;9.80;;
5612;SDS011;63463;53.586;9.928;2023-04-23T05:57:27;18.53;;;10.23;;
5612;SDS011;63463;53.586;9.928;2023-04-23T05:59:53;13.63;;;8.90;;
5612;SDS011;63463;53.586;9.928;2023-04-23T06:02:19;15.50;;;10.10;;
5612;SDS011;63463;53.586;9.928;2023-04-23T06:04:45;10.17;;;9.03;;
5612;SDS011;63463;53.586;9.928;2023-04-23T06:07:11;16.27;;;9.97;;
5612;SDS011;63463;53.586;9.928;2023-04-23T06:09:39;12.90;;;9.63;;
5612;SDS011;63463;53.586;9.928;2023-04-23T06:12:05;9.97;;;8.40;;
5612;SDS011;63463;53.586;9.928;2023-04-23T06:14:31;12.67;;;9.27;;
5612;SDS011;63463;53.586;9.928;2023-04-23T06:16:57;16.57;;;8.60;;
5612;SDS011;63463;53.586;9.928;2023-04-23T06:19:26;12.97;;;9.00;;
5612;SDS011;63463;53.586;9.928;2023-04-23T06:21:52;9.57;;;7.37;;
5612;SDS011;63463;53.586;9.928;2023-04-23T06:24:18;20.90;;;8.73;;
5612;SDS011;63463;53.586;9.928;2023-04-23T06:26:44;12.33;;;7.80;;
5612;SDS011;63463;53.586;9.928;2023-04-23T06:29:10;11.00;;;7.90;;
5612;SDS011;63463;53.586;9.928;2023-04-23T06:31:37;12.40;;;7.97;;
5612;SDS011;63463;53.586;9.928;2023-04-23T06:34:03;10.10;;;8.20;;
5612;SDS011;63463;53.586;9.928;2023-04-23T06:36:29;8.67;;;7.40;;
5612;SDS011;63463;53.586;9.928;2023-04-23T06:38:56;8.40;;;7.40;;
5612;SDS011;63463;53.586;9.928;2023-04-23T06:41:22;14.50;;;7.47;;
5612;SDS011;63463;53.586;9.928;2023-04-23T06:43:48;10.60;;;7.33;;
5612;SDS011;63463;53.586;9.928;2023-04-23T06:46:14;12.60;;;7.80;;
5612;SDS011;63463;53.586;9.928;2023-04-23T06:48:40;8.97;;;7.57;;
5612;SDS011;63463;53.586;9.928;2023-04-23T06:51:06;10.87;;;7.10;;
5612;SDS011;63463;53.586;9.928;2023-04-23T06:53:32;18.40;;;7.27;;
5612;SDS011;63463;53.586;9.928;2023-04-23T06:55:58;12.87;;;7.77;;
5612;SDS011;63463;53.586;9.928;2023-04-23T06:58:24;8.10;;;7.40;;
5612;SDS011;63463;53.586;9.928;2023-04-23T07:00:55;8.17;;;7.37;;
5612;SDS011;63463;53.586;9.928;2023-04-23T07:03:25;13.07;;;8.20;;
5612;SDS011;63463;53.586;9.928;2023-04-23T07:05:52;11.30;;;8.00;;
5612;SDS011;63463;53.586;9.928;2023-04-23T07:08:19;8.30;;;7.33;;
5612;SDS011;63463;53.586;9.928;2023-04-23T07:10:48;11.63;;;7.87;;
5612;SDS011;63463;53.586;9.928;2023-04-23T07:13:14;11.87;;;8.60;;
5612;SDS011;63463;53.586;9.928;2023-04-23T07:15:40;9.83;;;7.67;;
5612;SDS011;63463;53.586;9.928;2023-04-23T07:18:07;14.17;;;8.07;;
5612;SDS011;63463;53.586;9.928;2023-04-23T07:20:33;13.00;;;8.50;;
5612;SDS011;63463;53.586;9.928;2023-04-23T07:22:59;12.23;;;7.43;;
5612;SDS011;63463;53.586;9.928;2023-04-23T07:25:27;10.80;;;7.57;;
5612;SDS011;63463;53.586;9.928;2023-04-23T07:27:53;10.93;;;7.33;;
5612;SDS011;63463;53.586;9.928;2023-04-23T07:30:19;11.13;;;7.50;;
5612;SDS011;63463;53.586;9.928;2023-04-23T07:32:47;14.33;;;8.63;;
5612;SDS011;63463;53.586;9.928;2023-04-23T07:35:13;12.53;;;7.37;;
5612;SDS011;63463;53.586;9.928;2023-04-23T07:37:39;10.60;;;7.50;;
5612;SDS011;63463;53.586;9.928;2023-04-23T07:40:06;17.17;;;8.37;;
5612;SDS011;63463;53.586;9.928;2023-04-23T07:42:33;10.33;;;8.50;;
5612;SDS011;63463;53.586;9.928;2023-04-23T07:44:59;11.93;;;8.00;;
5612;SDS011;63463;53.586;9.928;2023-04-23T07:47:25;9.73;;;7.83;;
5612;SDS011;63463;53.586;9.928;2023-04-23T07:49:51;13.03;;;8.27;;
5612;SDS011;63463;53.586;9.928;2023-04-23T07:52:18;12.83;;;8.43;;
5612;SDS011;63463;53.586;9.928;2023-04-23T07:54:44;11.43;;;7.70;;
5612;SDS011;63463;53.586;9.928;2023-04-23T07:57:10;10.40;;;8.40;;
5612;SDS011;63463;53.586;9.928;2023-04-23T07:59:36;9.53;;;7.67;;
5612;SDS011;63463;53.586;9.928;2023-04-23T08:02:05;13.07;;;7.97;;
5612;SDS011;63463;53.586;9.928;2023-04-23T08:04:31;12.10;;;7.80;;
5612;SDS011;63463;53.586;9.928;2023-04-23T08:06:58;9.97;;;6.80;;
5612;SDS011;63463;53.586;9.928;2023-04-23T08:09:24;9.40;;;7.30;;
5612;SDS011;63463;53.586;9.928;2023-04-23T08:11:50;7.57;;;6.63;;
5612;SDS011;63463;53.586;9.928;2023-04-23T08:14:17;8.97;;;6.90;;
5612;SDS011;63463;53.586;9.928;2023-04-23T08:16:43;7.97;;;7.00;;
5612;SDS011;63463;53.586;9.928;2023-04-23T08:19:09;8.57;;;7.37;;
5612;SDS011;63463;53.586;9.928;2023-04-23T08:21:35;33.77;;;7.40;;
5612;SDS011;63463;53.586;9.928;2023-04-23T08:24:01;11.63;;;7.57;;
5612;SDS011;63463;53.586;9.928;2023-04-23T08:26:28;8.17;;;7.13;;
5612;SDS011;63463;53.586;9.928;2023-04-23T08:28:55;30.27;;;7.50;;
5612;SDS011;63463;53.586;9.928;2023-04-23T08:31:21;9.33;;;7.53;;
5612;SDS011;63463;53.586;9.928;2023-04-23T08:33:47;10.77;;;6.60;;
5612;SDS011;63463;53.586;9.928;2023-04-23T08:36:13;7.73;;;6.93;;
5612;SDS011;63463;53.586;9.928;2023-04-23T08:38:41;9.70;;;7.50;;
5612;SDS011;63463;53.586;9.928;2023-04-23T08:41:09;10.57;;;7.00;;
5612;SDS011;63463;53.586;9.928;2023-04-23T08:44:22;11.47;;;7.73;;
5612;SDS011;63463;53.586;9.928;2023-04-23T08:46:21;18.27;;;6.57;;
5612;SDS011;63463;53.586;9.928;2023-04-23T08:48:47;7.17;;;6.43;;
5612;SDS011;63463;53.586;9.928;2023-04-23T08:51:17;12.07;;;7.80;;
5612;SDS011;63463;53.586;9.928;2023-04-23T08:53:44;10.77;;;7.43;;
5612;SDS011;63463;53.586;9.928;2023-04-23T08:56:14;14.33;;;7.60;;
5612;SDS011;63463;53.586;9.928;2023-04-23T08:58:40;10.07;;;7.13;;
5612;SDS011;63463;53.586;9.928;2023-04-23T09:01:06;11.10;;;7.70;;
5612;SDS011;63463;53.586;9.928;2023-04-23T09:03:34;9.00;;;6.93;;
5612;SDS011;63463;53.586;9.928;2023-04-23T09:06:00;13.10;;;7.93;;
5612;SDS011;63463;53.586;9.928;2023-04-23T09:08:26;7.83;;;6.90;;
5612;SDS011;63463;53.586;9.928;2023-04-23T09:10:53;12.43;;;7.23;;
5612;SDS011;63463;53.586;9.928;2023-04-23T09:13:20;11.40;;;7.30;;
5612;SDS011;63463;53.586;9.928;2023-04-23T09:15:47;11.10;;;6.83;;
5612;SDS011;63463;53.586;9.928;2023-04-23T09:18:13;9.37;;;6.90;;
5612;SDS011;63463;53.586;9.928;2023-04-23T09:20:42;9.17;;;6.43;;
5612;SDS011;63463;53.586;9.928;2023-04-23T09:23:14;9.83;;;6.40;;
5612;SDS011;63463;53.586;9.928;2023-04-23T09:25:43;9.00;;;6.97;;
5612;SDS011;63463;53.586;9.928;2023-04-23T09:28:10;8.57;;;6.90;;
5612;SDS011;63463;53.586;9.928;2023-04-23T09:30:43;16.00;;;8.10;;
5612;SDS011;63463;53.586;9.928;2023-04-23T09:33:13;30.00;;;8.70;;
5612;SDS011;63463;53.586;9.928;2023-04-23T09:35:41;10.97;;;7.73;;
5612;SDS011;63463;53.586;9.928;2023-04-23T09:38:07;13.53;;;7.77;;
5612;SDS011;63463;53.586;9.928;2023-04-23T09:40:35;14.13;;;7.37;;
5612;SDS011;63463;53.586;9.928;2023-04-23T09:43:03;15.23;;;8.10;;
5612;SDS011;63463;53.586;9.928;2023-04-23T09:45:53;10.10;;;7.73;;
5612;SDS011;63463;53.586;9.928;2023-04-23T09:48:19;10.50;;;7.80;;
5612;SDS011;63463;53.586;9.928;2023-04-23T09:50:46;9.73;;;7.23;;
5612;SDS011;63463;53.586;9.928;2023-04-23T09:53:12;12.10;;;7.47;;
5612;SDS011;63463;53.586;9.928;2023-04-23T09:55:43;13.53;;;8.57;;
5612;SDS011;63463;53.586;9.928;2023-04-23T09:58:10;14.20;;;8.07;;
5612;SDS011;63463;53.586;9.928;2023-04-23T10:00:37;12.30;;;7.93;;
5612;SDS011;63463;53.586;9.928;2023-04-23T10:03:03;11.80;;;7.90;;
5612;SDS011;63463;53.586;9.928;2023-04-23T10:05:31;10.47;;;7.80;;
5612;SDS011;63463;53.586;9.928;2023-04-23T10:08:18;8.80;;;7.23;;
5612;SDS011;63463;53.586;9.928;2023-04-23T10:10:46;10.00;;;7.20;;
5612;SDS011;63463;53.586;9.928;2023-04-23T10:13:13;13.43;;;7.80;;
5612;SDS011;63463;53.586;9.928;2023-04-23T10:15:46;15.17;;;8.30;;
5612;SDS011;63463;53.586;9.928;2023-04-23T10:18:25;9.80;;;7.17;;
5612;SDS011;63463;53.586;9.928;2023-04-23T10:21:02;14.97;;;8.20;;
5612;SDS011;63463;53.586;9.928;2023-04-23T10:23:44;10.47;;;7.90;;
5612;SDS011;63463;53.586;9.928;2023-04-23T10:26:13;13.20;;;8.10;;
5612;SDS011;63463;53.586;9.928;2023-04-23T10:28:40;12.03;;;8.03;;
5612;SDS011;63463;53.586;9.928;2023-04-23T10:31:11;9.87;;;7.30;;
5612;SDS011;63463;53.586;9.928;2023-04-23T10:33:38;15.57;;;8.30;;
5612;SDS011;63463;53.586;9.928;2023-04-23T10:36:07;14.83;;;8.37;;
5612;SDS011;63463;53.586;9.928;2023-04-23T10:38:33;12.17;;;8.50;;
5612;SDS011;63463;53.586;9.928;2023-04-23T10:41:00;13.47;;;7.50;;
5612;SDS011;63463;53.586;9.928;2023-04-23T10:43:27;14.47;;;8.40;;
5612;SDS011;63463;53.586;9.928;2023-04-23T10:45:54;162.60;;;14.60;;
5612;SDS011;63463;53.586;9.928;2023-04-23T10:48:19;714.10;;;44.47;;
5612;SDS011;63463;53.586;9.928;2023-04-23T10:50:46;112.17;;;12.63;;
5612;SDS011;63463;53.586;9.928;2023-04-23T10:53:18;61.60;;;10.33;;
5612;SDS011;63463;53.586;9.928;2023-04-23T10:55:48;17.10;;;8.90;;
5612;SDS011;63463;53.586;9.928;2023-04-23T10:58:14;391.37;;;24.13;;
5612;SDS011;63463;53.586;9.928;2023-04-23T11:00:42;81.37;;;13.67;;
5612;SDS011;63463;53.586;9.928;2023-04-23T11:03:30;14.30;;;9.30;;
5612;SDS011;63463;53.586;9.928;2023-04-23T11:05:56;23.93;;;8.77;;
5612;SDS011;63463;53.586;9.928;2023-04-23T11:08:22;13.23;;;9.20;;
5612;SDS011;63463;53.586;9.928;2023-04-23T11:10:55;14.73;;;9.50;;
5612;SDS011;63463;53.586;9.928;2023-04-23T11:13:22;13.87;;;8.80;;
5612;SDS011;63463;53.586;9.928;2023-04-23T11:21:21;12.53;;;8.97;;
5612;SDS011;63463;53.586;9.928;2023-04-23T11:23:51;13.57;;;8.80;;
5612;SDS011;63463;53.586;9.928;2023-04-23T11:26:17;16.73;;;9.00;;
5612;SDS011;63463;53.586;9.928;2023-04-23T11:28:43;13.93;;;8.70;;
5612;SDS011;63463;53.586;9.928;2023-04-23T11:31:09;11.40;;;7.40;;
5612;SDS011;63463;53.586;9.928;2023-04-23T11:33:36;19.73;;;7.30;;
5612;SDS011;63463;53.586;9.928;2023-04-23T11:36:03;10.40;;;7.00;;
5612;SDS011;63463;53.586;9.928;2023-04-23T11:38:32;12.13;;;7.77;;
5612;SDS011;63463;53.586;9.928;2023-04-23T11:41:01;30.00;;;8.00;;
5612;SDS011;63463;53.586;9.928;2023-04-23T11:43:27;13.40;;;7.80;;
5612;SDS011;63463;53.586;9.928;2023-04-23T11:45:55;9.03;;;6.77;;
5612;SDS011;63463;53.586;9.928;2023-04-23T11:48:23;9.13;;;6.00;;
5612;SDS011;63463;53.586;9.928;2023-04-23T11:50:50;13.60;;;6.60;;
5612;SDS011;63463;53.586;9.928;2023-04-23T11:53:17;8.97;;;6.80;;
5612;SDS011;63463;53.586;9.928;2023-04-23T11:55:53;5.60;;;4.70;;
5612;SDS011;63463;53.586;9.928;2023-04-23T11:58:19;13.93;;;6.03;;
5612;SDS011;63463;53.586;9.928;2023-04-23T12:00:45;10.70;;;5.30;;
5612;SDS011;63463;53.586;9.928;2023-04-23T12:03:14;8.73;;;5.83;;
5612;SDS011;63463;53.586;9.928;2023-04-23T12:05:42;7.10;;;5.63;;
5612;SDS011;63463;53.586;9.928;2023-04-23T12:08:10;6.00;;;5.23;;
5612;SDS011;63463;53.586;9.928;2023-04-23T12:10:52;6.20;;;4.33;;
5612;SDS011;63463;53.586;9.928;2023-04-23T12:13:22;7.20;;;5.63;;
5612;SDS011;63463;53.586;9.928;2023-04-23T12:15:50;6.60;;;5.60;;
5612;SDS011;63463;53.586;9.928;2023-04-23T12:18:31;14.30;;;5.57;;
5612;SDS011;63463;53.586;9.928;2023-04-23T12:21:07;18.23;;;6.60;;
5612;SDS011;63463;53.586;9.928;2023-04-23T12:23:41;86.53;;;11.87;;
5612;SDS011;63463;53.586;9.928;2023-04-23T12:26:12;8.03;;;4.30;;
5612;SDS011;63463;53.586;9.928;2023-04-23T12:28:49;18.00;;;5.20;;
5612;SDS011;63463;53.586;9.928;2023-04-23T12:31:22;5.10;;;3.90;;
5612;SDS011;63463;53.586;9.928;2023-04-23T12:34:08;64.07;;;6.73;;
5612;SDS011;63463;53.586;9.928;2023-04-23T12:36:42;7.13;;;4.60;;
5612;SDS011;63463;53.586;9.928;2023-04-23T12:42:00;10.90;;;4.13;;
5612;SDS011;63463;53.586;9.928;2023-04-23T12:44:39;9.50;;;4.07;;
5612;SDS011;63463;53.586;9.928;2023-04-23T12:47:07;5.23;;;4.67;;
5612;SDS011;63463;53.586;9.928;2023-04-23T12:49:40;25.33;;;4.37;;
5612;SDS011;63463;53.586;9.928;2023-04-23T12:52:10;26.43;;;4.47;;
5612;SDS011;63463;53.586;9.928;2023-04-23T12:54:41;31.33;;;5.50;;
5612;SDS011;63463;53.586;9.928;2023-04-23T12:57:10;4.13;;;3.83;;
5612;SDS011;63463;53.586;9.928;2023-04-23T12:59:42;5.03;;;3.60;;
5612;SDS011;63463;53.586;9.928;2023-04-23T13:02:12;13.97;;;5.37;;
5612;SDS011;63463;53.586;9.928;2023-04-23T13:04:39;4.00;;;3.70;;
5612;SDS011;63463;53.586;9.928;2023-04-23T13:07:07;8.43;;;4.20;;
5612;SDS011;63463;53.586;9.928;2023-04-23T13:09:38;35.07;;;5.43;;
5612;SDS011;63463;53.586;9.928;2023-04-23T13:12:09;8.83;;;4.03;;
5612;SDS011;63463;53.586;9.928;2023-04-23T13:14:37;12.73;;;4.13;;
5612;SDS011;63463;53.586;9.928;2023-04-23T13:17:05;42.03;;;4.40;;
5612;SDS011;63463;53.586;9.928;2023-04-23T13:19:32;5.20;;;3.40;;
5612;SDS011;63463;53.586;9.928;2023-04-23T13:22:05;3.93;;;3.57;;
5612;SDS011;63463;53.586;9.928;2023-04-23T13:24:35;15.10;;;4.40;;
5612;SDS011;63463;53.586;9.928;2023-04-23T13:27:11;3.83;;;3.43;;
5612;SDS011;63463;53.586;9.928;2023-04-23T13:29:39;3.67;;;3.30;;
5612;SDS011;63463;53.586;9.928;2023-04-23T13:32:07;4.50;;;3.67;;
5612;SDS011;63463;53.586;9.928;2023-04-23T13:34:37;3.30;;;3.10;;
5612;SDS011;63463;53.586;9.928;2023-04-23T13:37:04;3.63;;;2.83;;
5612;SDS011;63463;53.586;9.928;2023-04-23T13:39:35;9.07;;;3.40;;
5612;SDS011;63463;53.586;9.928;2023-04-23T13:42:03;4.80;;;3.30;;
5612;SDS011;63463;53.586;9.928;2023-04-23T13:44:35;4.83;;;3.50;;
5612;SDS011;63463;53.586;9.928;2023-04-23T13:47:03;10.93;;;3.00;;
5612;SDS011;63463;53.586;9.928;2023-04-23T13:49:32;3.90;;;3.07;;
5612;SDS011;63463;53.586;9.928;2023-04-23T13:52:08;3.47;;;3.10;;
5612;SDS011;63463;53.586;9.928;2023-04-23T13:54:36;3.33;;;3.13;;
5612;SDS011;63463;53.586;9.928;2023-04-23T13:57:06;4.53;;;3.20;;
5612;SDS011;63463;53.586;9.928;2023-04-23T13:59:34;5.30;;;3.23;;
5612;SDS011;63463;53.586;9.928;2023-04-23T14:02:01;5.13;;;2.87;;
5612;SDS011;63463;53.586;9.928;2023-04-23T14:04:27;14.37;;;3.77;;
5612;SDS011;63463;53.586;9.928;2023-04-23T14:06:53;9.37;;;3.20;;
5612;SDS011;63463;53.586;9.928;2023-04-23T14:09:26;5.63;;;3.20;;
5612;SDS011;63463;53.586;9.928;2023-04-23T14:11:54;4.17;;;3.23;;
5612;SDS011;63463;53.586;9.928;2023-04-23T14:14:21;5.83;;;3.30;;
5612;SDS011;63463;53.586;9.928;2023-04-23T14:19:20;7.57;;;2.73;;
5612;SDS011;63463;53.586;9.928;2023-04-23T14:21:48;4.00;;;3.30;;
5612;SDS011;63463;53.586;9.928;2023-04-23T14:24:21;5.43;;;3.10;;
5612;SDS011;63463;53.586;9.928;2023-04-23T14:26:50;2.33;;;2.23;;
5612;SDS011;63463;53.586;9.928;2023-04-23T14:29:28;3.00;;;2.80;;
5612;SDS011;63463;53.586;9.928;2023-04-23T14:31:57;8.40;;;4.10;;
5612;SDS011;63463;53.586;9.928;2023-04-23T14:34:24;10.93;;;4.73;;
5612;SDS011;63463;53.586;9.928;2023-04-23T14:36:54;6.00;;;3.87;;
5612;SDS011;63463;53.586;9.928;2023-04-23T14:39:21;5.57;;;4.00;;
5612;SDS011;63463;53.586;9.928;2023-04-23T14:41:47;6.07;;;4.40;;
5612;SDS011;63463;53.586;9.928;2023-04-23T14:46:46;10.13;;;5.60;;
5612;SDS011;63463;53.586;9.928;2023-04-23T14:51:58;9.50;;;6.00;;
5612;SDS011;63463;53.586;9.928;2023-04-23T14:57:05;9.20;;;6.00;;
5612;SDS011;63463;53.586;9.928;2023-04-23T14:59:57;7.43;;;5.60;;
5612;SDS011;63463;53.586;9.928;2023-04-23T15:02:31;6.10;;;5.03;;
5612;SDS011;63463;53.586;9.928;2023-04-23T15:05:20;5.97;;;5.33;;
5612;SDS011;63463;53.586;9.928;2023-04-23T15:08:32;5.63;;;4.80;;
5612;SDS011;63463;53.586;9.928;2023-04-23T15:10:57;8.00;;;4.60;;